sensor_id;sensor_type;location;lat;lon;timestamp;P1;durP1;ratioP1;P2;durP2;ratioP2
15194;SDS011;7698;42.478;23.756;2024-03-23T00:54:29;12.65;;;10.95;;
15194;SDS011;7698;42.478;23.756;2024-03-23T00:56:56;11.25;;;9.52;;
15194;SDS011;7698;42.478;23.756;2024-03-23T00:59:21;11.63;;;8.80;;
15194;SDS011;7698;42.478;23.756;2024-03-23T01:01:52;9.95;;;8.27;;
15194;SDS011;7698;42.478;23.756;2024-03-23T01:04:18;9.13;;;7.05;;
15194;SDS011;7698;42.478;23.756;2024-03-23T01:06:44;8.55;;;6.75;;
15194;SDS011;7698;42.478;23.756;2024-03-23T01:09:12;8.88;;;6.22;;
15194;SDS011;7698;42.478;23.756;2024-03-23T01:11:40;6.72;;;5.78;;
15194;SDS011;7698;42.478;23.756;2024-03-23T01:14:07;5.25;;;4.28;;
15194;SDS011;7698;42.478;23.756;2024-03-23T01:16:32;8.40;;;5.78;;
15194;SDS011;7698;42.478;23.756;2024-03-23T01:18:59;5.80;;;5.18;;
15194;SDS011;7698;42.478;23.756;2024-03-23T01:21:25;5.95;;;5.00;;
15194;SDS011;7698;42.478;23.756;2024-03-23T01:23:51;7.30;;;5.07;;
15194;SDS011;7698;42.478;23.756;2024-03-23T01:26:17;6.88;;;6.05;;
15194;SDS011;7698;42.478;23.756;2024-03-23T01:28:45;5.57;;;5.07;;
15194;SDS011;7698;42.478;23.756;2024-03-23T01:31:11;5.78;;;4.90;;
15194;SDS011;7698;42.478;23.756;2024-03-23T01:33:38;5.30;;;4.65;;
15194;SDS011;7698;42.478;23.756;2024-03-23T01:36:04;8.93;;;7.03;;
15194;SDS011;7698;42.478;23.756;2024-03-23T01:38:30;8.38;;;6.57;;
15194;SDS011;7698;42.478;23.756;2024-03-23T01:40:57;10.80;;;9.70;;
15194;SDS011;7698;42.478;23.756;2024-03-23T01:43:23;18.33;;;13.50;;
15194;SDS011;7698;42.478;23.756;2024-03-23T01:45:50;15.52;;;13.65;;
15194;SDS011;7698;42.478;23.756;2024-03-23T01:48:19;16.35;;;12.98;;
15194;SDS011;7698;42.478;23.756;2024-03-23T01:50:45;13.82;;;12.35;;
15194;SDS011;7698;42.478;23.756;2024-03-23T01:53:13;11.88;;;9.57;;
15194;SDS011;7698;42.478;23.756;2024-03-23T01:55:42;9.52;;;8.63;;
15194;SDS011;7698;42.478;23.756;2024-03-23T01:58:09;9.32;;;8.13;;
15194;SDS011;7698;42.478;23.756;2024-03-23T02:00:34;8.60;;;7.55;;
15194;SDS011;7698;42.478;23.756;2024-03-23T02:03:03;8.45;;;7.50;;
15194;SDS011;7698;42.478;23.756;2024-03-23T02:05:47;9.63;;;7.45;;
15194;SDS011;7698;42.478;23.756;2024-03-23T02:08:14;8.90;;;6.50;;
15194;SDS011;7698;42.478;23.756;2024-03-23T02:10:39;7.20;;;6.50;;
15194;SDS011;7698;42.478;23.756;2024-03-23T02:13:06;6.47;;;5.88;;
15194;SDS011;7698;42.478;23.756;2024-03-23T02:15:32;7.20;;;6.50;;
15194;SDS011;7698;42.478;23.756;2024-03-23T02:18:00;6.45;;;5.82;;
15194;SDS011;7698;42.478;23.756;2024-03-23T02:20:27;7.05;;;5.30;;
15194;SDS011;7698;42.478;23.756;2024-03-23T02:22:55;7.03;;;5.43;;
15194;SDS011;7698;42.478;23.756;2024-03-23T02:25:20;7.97;;;6.30;;
15194;SDS011;7698;42.478;23.756;2024-03-23T02:27:47;9.57;;;8.02;;
15194;SDS011;7698;42.478;23.756;2024-03-23T02:30:13;12.63;;;11.43;;
15194;SDS011;7698;42.478;23.756;2024-03-23T02:32:39;16.25;;;14.65;;
15194;SDS011;7698;42.478;23.756;2024-03-23T02:35:05;16.17;;;14.68;;
15194;SDS011;7698;42.478;23.756;2024-03-23T02:37:32;15.45;;;13.85;;
15194;SDS011;7698;42.478;23.756;2024-03-23T02:39:59;13.32;;;12.13;;
15194;SDS011;7698;42.478;23.756;2024-03-23T02:42:26;13.05;;;11.68;;
15194;SDS011;7698;42.478;23.756;2024-03-23T02:44:52;9.85;;;8.90;;
15194;SDS011;7698;42.478;23.756;2024-03-23T02:47:18;10.82;;;9.73;;
15194;SDS011;7698;42.478;23.756;2024-03-23T02:49:44;8.40;;;7.47;;
15194;SDS011;7698;42.478;23.756;2024-03-23T02:52:11;8.05;;;7.25;;
15194;SDS011;7698;42.478;23.756;2024-03-23T02:54:36;9.13;;;7.68;;
15194;SDS011;7698;42.478;23.756;2024-03-23T02:57:04;10.43;;;8.27;;
15194;SDS011;7698;42.478;23.756;2024-03-23T02:59:30;9.30;;;8.30;;
15194;SDS011;7698;42.478;23.756;2024-03-23T03:01:57;10.18;;;8.57;;
15194;SDS011;7698;42.478;23.756;2024-03-23T03:04:22;9.55;;;8.27;;
15194;SDS011;7698;42.478;23.756;2024-03-23T03:06:49;11.60;;;9.40;;
15194;SDS011;7698;42.478;23.756;2024-03-23T03:09:15;10.00;;;9.00;;
15194;SDS011;7698;42.478;23.756;2024-03-23T03:11:41;8.10;;;7.30;;
15194;SDS011;7698;42.478;23.756;2024-03-23T03:14:08;8.85;;;7.95;;
15194;SDS011;7698;42.478;23.756;2024-03-23T03:16:35;9.70;;;8.70;;
15194;SDS011;7698;42.478;23.756;2024-03-23T03:19:01;9.57;;;8.55;;
15194;SDS011;7698;42.478;23.756;2024-03-23T03:21:28;10.88;;;9.85;;
15194;SDS011;7698;42.478;23.756;2024-03-23T03:23:54;11.38;;;9.70;;
15194;SDS011;7698;42.478;23.756;2024-03-23T03:26:21;12.25;;;9.98;;
15194;SDS011;7698;42.478;23.756;2024-03-23T03:28:47;10.95;;;9.10;;
15194;SDS011;7698;42.478;23.756;2024-03-23T03:31:15;7.65;;;6.85;;
15194;SDS011;7698;42.478;23.756;2024-03-23T03:33:41;8.77;;;6.45;;
15194;SDS011;7698;42.478;23.756;2024-03-23T03:36:08;6.75;;;5.70;;
15194;SDS011;7698;42.478;23.756;2024-03-23T03:38:34;7.68;;;6.78;;
15194;SDS011;7698;42.478;23.756;2024-03-23T03:41:01;7.22;;;6.32;;
15194;SDS011;7698;42.478;23.756;2024-03-23T03:43:26;6.57;;;5.90;;
15194;SDS011;7698;42.478;23.756;2024-03-23T03:45:53;6.60;;;5.63;;
15194;SDS011;7698;42.478;23.756;2024-03-23T03:48:20;7.22;;;5.00;;
15194;SDS011;7698;42.478;23.756;2024-03-23T03:50:47;6.18;;;5.10;;
15194;SDS011;7698;42.478;23.756;2024-03-23T03:53:13;5.93;;;4.90;;
15194;SDS011;7698;42.478;23.756;2024-03-23T03:55:39;6.82;;;6.13;;
15194;SDS011;7698;42.478;23.756;2024-03-23T03:58:05;6.63;;;5.15;;
15194;SDS011;7698;42.478;23.756;2024-03-23T04:00:32;5.85;;;5.00;;
15194;SDS011;7698;42.478;23.756;2024-03-23T04:02:58;7.30;;;6.40;;
15194;SDS011;7698;42.478;23.756;2024-03-23T04:05:26;6.88;;;5.78;;
15194;SDS011;7698;42.478;23.756;2024-03-23T04:07:52;8.02;;;6.38;;
15194;SDS011;7698;42.478;23.756;2024-03-23T04:10:19;10.10;;;8.55;;
15194;SDS011;7698;42.478;23.756;2024-03-23T04:12:45;11.63;;;9.73;;
15194;SDS011;7698;42.478;23.756;2024-03-23T04:15:11;9.88;;;8.73;;
15194;SDS011;7698;42.478;23.756;2024-03-23T04:17:37;9.27;;;6.55;;
15194;SDS011;7698;42.478;23.756;2024-03-23T04:20:04;7.15;;;6.25;;
15194;SDS011;7698;42.478;23.756;2024-03-23T04:22:35;7.38;;;6.53;;
15194;SDS011;7698;42.478;23.756;2024-03-23T04:25:02;10.68;;;7.25;;
15194;SDS011;7698;42.478;23.756;2024-03-23T04:27:31;10.48;;;8.35;;
15194;SDS011;7698;42.478;23.756;2024-03-23T04:29:58;9.80;;;6.95;;
15194;SDS011;7698;42.478;23.756;2024-03-23T04:32:26;13.23;;;8.75;;
15194;SDS011;7698;42.478;23.756;2024-03-23T04:34:53;9.43;;;7.55;;
15194;SDS011;7698;42.478;23.756;2024-03-23T04:37:19;8.13;;;6.35;;
15194;SDS011;7698;42.478;23.756;2024-03-23T04:39:47;8.40;;;6.93;;
15194;SDS011;7698;42.478;23.756;2024-03-23T04:42:14;8.13;;;6.63;;
15194;SDS011;7698;42.478;23.756;2024-03-23T04:44:41;5.32;;;4.82;;
15194;SDS011;7698;42.478;23.756;2024-03-23T04:47:08;6.03;;;4.88;;
15194;SDS011;7698;42.478;23.756;2024-03-23T04:49:35;6.50;;;5.75;;
15194;SDS011;7698;42.478;23.756;2024-03-23T04:52:03;7.20;;;6.00;;
15194;SDS011;7698;42.478;23.756;2024-03-23T04:54:29;8.40;;;6.40;;
15194;SDS011;7698;42.478;23.756;2024-03-23T04:56:58;6.40;;;5.80;;
15194;SDS011;7698;42.478;23.756;2024-03-23T04:59:25;9.52;;;6.43;;
15194;SDS011;7698;42.478;23.756;2024-03-23T05:01:52;7.07;;;5.28;;
15194;SDS011;7698;42.478;23.756;2024-03-23T05:04:17;7.90;;;6.15;;
15194;SDS011;7698;42.478;23.756;2024-03-23T05:06:44;6.70;;;5.95;;
15194;SDS011;7698;42.478;23.756;2024-03-23T05:09:10;7.00;;;6.30;;
15194;SDS011;7698;42.478;23.756;2024-03-23T05:11:38;8.02;;;6.35;;
15194;SDS011;7698;42.478;23.756;2024-03-23T05:14:06;7.75;;;6.95;;
15194;SDS011;7698;42.478;23.756;2024-03-23T05:16:34;9.15;;;6.53;;
15194;SDS011;7698;42.478;23.756;2024-03-23T05:19:00;8.70;;;7.80;;
15194;SDS011;7698;42.478;23.756;2024-03-23T05:21:27;11.05;;;7.93;;
15194;SDS011;7698;42.478;23.756;2024-03-23T05:23:53;14.45;;;9.50;;
15194;SDS011;7698;42.478;23.756;2024-03-23T05:26:21;9.38;;;7.55;;
15194;SDS011;7698;42.478;23.756;2024-03-23T05:28:47;9.23;;;7.43;;
15194;SDS011;7698;42.478;23.756;2024-03-23T05:31:23;8.23;;;6.75;;
15194;SDS011;7698;42.478;23.756;2024-03-23T05:33:49;7.82;;;6.65;;
15194;SDS011;7698;42.478;23.756;2024-03-23T05:36:17;8.20;;;6.60;;
15194;SDS011;7698;42.478;23.756;2024-03-23T05:38:43;7.03;;;6.25;;
15194;SDS011;7698;42.478;23.756;2024-03-23T05:41:10;8.10;;;6.00;;
15194;SDS011;7698;42.478;23.756;2024-03-23T05:43:36;6.50;;;5.50;;
15194;SDS011;7698;42.478;23.756;2024-03-23T05:46:03;7.45;;;6.70;;
15194;SDS011;7698;42.478;23.756;2024-03-23T05:48:31;7.85;;;5.95;;
15194;SDS011;7698;42.478;23.756;2024-03-23T05:50:58;6.10;;;5.38;;
15194;SDS011;7698;42.478;23.756;2024-03-23T05:53:24;6.40;;;5.80;;
15194;SDS011;7698;42.478;23.756;2024-03-23T05:55:51;6.40;;;5.78;;
15194;SDS011;7698;42.478;23.756;2024-03-23T05:58:19;7.32;;;6.05;;
15194;SDS011;7698;42.478;23.756;2024-03-23T06:00:46;6.68;;;5.75;;
15194;SDS011;7698;42.478;23.756;2024-03-23T06:03:12;8.43;;;5.85;;
15194;SDS011;7698;42.478;23.756;2024-03-23T06:05:40;7.72;;;6.47;;
15194;SDS011;7698;42.478;23.756;2024-03-23T06:08:07;6.10;;;5.50;;
15194;SDS011;7698;42.478;23.756;2024-03-23T06:10:35;8.63;;;6.88;;
15194;SDS011;7698;42.478;23.756;2024-03-23T06:13:01;6.93;;;6.22;;
15194;SDS011;7698;42.478;23.756;2024-03-23T06:15:27;8.65;;;6.97;;
15194;SDS011;7698;42.478;23.756;2024-03-23T06:17:53;6.80;;;6.10;;
15194;SDS011;7698;42.478;23.756;2024-03-23T06:20:21;7.95;;;7.20;;
15194;SDS011;7698;42.478;23.756;2024-03-23T06:22:48;6.85;;;6.03;;
15194;SDS011;7698;42.478;23.756;2024-03-23T06:25:15;7.38;;;6.03;;
15194;SDS011;7698;42.478;23.756;2024-03-23T06:27:40;8.40;;;6.63;;
15194;SDS011;7698;42.478;23.756;2024-03-23T06:30:07;6.72;;;6.03;;
15194;SDS011;7698;42.478;23.756;2024-03-23T06:32:33;6.03;;;5.50;;
15194;SDS011;7698;42.478;23.756;2024-03-23T06:35:01;6.50;;;5.90;;
15194;SDS011;7698;42.478;23.756;2024-03-23T06:37:33;5.28;;;4.80;;
15194;SDS011;7698;42.478;23.756;2024-03-23T06:40:01;7.00;;;6.35;;
15194;SDS011;7698;42.478;23.756;2024-03-23T06:42:27;7.30;;;6.22;;
15194;SDS011;7698;42.478;23.756;2024-03-23T06:44:53;8.02;;;5.63;;
15194;SDS011;7698;42.478;23.756;2024-03-23T06:47:19;6.65;;;5.75;;
15194;SDS011;7698;42.478;23.756;2024-03-23T06:49:46;5.95;;;5.10;;
15194;SDS011;7698;42.478;23.756;2024-03-23T06:52:12;6.57;;;5.97;;
15194;SDS011;7698;42.478;23.756;2024-03-23T06:54:38;5.75;;;5.18;;
15194;SDS011;7698;42.478;23.756;2024-03-23T06:57:06;6.22;;;5.60;;
15194;SDS011;7698;42.478;23.756;2024-03-23T06:59:32;11.18;;;8.00;;
15194;SDS011;7698;42.478;23.756;2024-03-23T07:01:58;8.05;;;6.78;;
15194;SDS011;7698;42.478;23.756;2024-03-23T07:04:25;45.65;;;27.95;;
15194;SDS011;7698;42.478;23.756;2024-03-23T07:06:52;20.35;;;13.75;;
15194;SDS011;7698;42.478;23.756;2024-03-23T07:09:20;18.98;;;15.52;;
15194;SDS011;7698;42.478;23.756;2024-03-23T07:11:53;13.38;;;10.23;;
15194;SDS011;7698;42.478;23.756;2024-03-23T07:14:20;10.73;;;9.60;;
15194;SDS011;7698;42.478;23.756;2024-03-23T07:16:47;13.30;;;11.07;;
15194;SDS011;7698;42.478;23.756;2024-03-23T07:19:14;13.57;;;8.95;;
15194;SDS011;7698;42.478;23.756;2024-03-23T07:21:42;6.57;;;5.97;;
15194;SDS011;7698;42.478;23.756;2024-03-23T07:24:08;6.82;;;6.15;;
15194;SDS011;7698;42.478;23.756;2024-03-23T07:26:35;5.30;;;4.80;;
15194;SDS011;7698;42.478;23.756;2024-03-23T07:29:01;6.03;;;5.53;;
15194;SDS011;7698;42.478;23.756;2024-03-23T07:31:30;6.30;;;5.65;;
15194;SDS011;7698;42.478;23.756;2024-03-23T07:33:56;7.03;;;6.32;;
15194;SDS011;7698;42.478;23.756;2024-03-23T07:36:23;7.93;;;6.65;;
15194;SDS011;7698;42.478;23.756;2024-03-23T07:38:50;6.28;;;5.68;;
15194;SDS011;7698;42.478;23.756;2024-03-23T07:41:17;7.45;;;5.97;;
15194;SDS011;7698;42.478;23.756;2024-03-23T07:43:44;6.75;;;6.00;;
15194;SDS011;7698;42.478;23.756;2024-03-23T07:46:11;6.68;;;5.93;;
15194;SDS011;7698;42.478;23.756;2024-03-23T07:48:38;6.03;;;5.43;;
15194;SDS011;7698;42.478;23.756;2024-03-23T07:51:08;6.97;;;6.07;;
15194;SDS011;7698;42.478;23.756;2024-03-23T07:53:34;8.32;;;5.97;;
15194;SDS011;7698;42.478;23.756;2024-03-23T07:56:02;6.40;;;5.80;;
15194;SDS011;7698;42.478;23.756;2024-03-23T07:58:28;7.30;;;5.85;;
15194;SDS011;7698;42.478;23.756;2024-03-23T08:00:55;5.90;;;5.28;;
15194;SDS011;7698;42.478;23.756;2024-03-23T08:03:22;7.18;;;5.78;;
15194;SDS011;7698;42.478;23.756;2024-03-23T08:05:51;5.22;;;4.72;;
15194;SDS011;7698;42.478;23.756;2024-03-23T08:08:17;6.53;;;5.93;;
15194;SDS011;7698;42.478;23.756;2024-03-23T08:10:47;6.53;;;5.93;;
15194;SDS011;7698;42.478;23.756;2024-03-23T08:13:13;6.05;;;5.50;;
15194;SDS011;7698;42.478;23.756;2024-03-23T08:15:39;7.30;;;6.00;;
15194;SDS011;7698;42.478;23.756;2024-03-23T08:18:05;6.60;;;5.95;;
15194;SDS011;7698;42.478;23.756;2024-03-23T08:20:32;6.80;;;6.10;;
15194;SDS011;7698;42.478;23.756;2024-03-23T08:22:59;7.10;;;6.38;;
15194;SDS011;7698;42.478;23.756;2024-03-23T08:25:26;6.10;;;5.50;;
15194;SDS011;7698;42.478;23.756;2024-03-23T08:27:51;7.13;;;6.43;;
15194;SDS011;7698;42.478;23.756;2024-03-23T08:30:18;6.85;;;6.15;;
15194;SDS011;7698;42.478;23.756;2024-03-23T08:32:44;7.90;;;6.82;;
15194;SDS011;7698;42.478;23.756;2024-03-23T08:35:11;6.53;;;5.88;;
15194;SDS011;7698;42.478;23.756;2024-03-23T08:37:37;6.97;;;5.53;;
15194;SDS011;7698;42.478;23.756;2024-03-23T08:40:06;6.75;;;5.60;;
15194;SDS011;7698;42.478;23.756;2024-03-23T08:42:34;7.72;;;5.25;;
15194;SDS011;7698;42.478;23.756;2024-03-23T08:45:01;6.60;;;5.43;;
15194;SDS011;7698;42.478;23.756;2024-03-23T08:47:27;5.45;;;4.88;;
15194;SDS011;7698;42.478;23.756;2024-03-23T08:49:54;5.05;;;4.55;;
15194;SDS011;7698;42.478;23.756;2024-03-23T08:52:20;5.30;;;4.80;;
15194;SDS011;7698;42.478;23.756;2024-03-23T08:54:48;4.85;;;4.28;;
15194;SDS011;7698;42.478;23.756;2024-03-23T08:57:15;4.70;;;4.30;;
15194;SDS011;7698;42.478;23.756;2024-03-23T08:59:42;5.90;;;4.45;;
15194;SDS011;7698;42.478;23.756;2024-03-23T09:02:08;4.82;;;4.15;;
15194;SDS011;7698;42.478;23.756;2024-03-23T09:04:35;4.72;;;4.32;;
15194;SDS011;7698;42.478;23.756;2024-03-23T09:07:01;4.63;;;4.13;;
15194;SDS011;7698;42.478;23.756;2024-03-23T09:09:27;3.45;;;3.15;;
15194;SDS011;7698;42.478;23.756;2024-03-23T09:11:53;3.15;;;2.95;;
15194;SDS011;7698;42.478;23.756;2024-03-23T09:14:21;2.95;;;2.72;;
15194;SDS011;7698;42.478;23.756;2024-03-23T09:16:49;3.10;;;2.80;;
15194;SDS011;7698;42.478;23.756;2024-03-23T09:19:16;3.40;;;3.10;;
15194;SDS011;7698;42.478;23.756;2024-03-23T09:21:42;3.45;;;3.15;;
15194;SDS011;7698;42.478;23.756;2024-03-23T09:24:09;4.15;;;3.20;;
15194;SDS011;7698;42.478;23.756;2024-03-23T09:26:35;3.13;;;2.85;;
15194;SDS011;7698;42.478;23.756;2024-03-23T09:29:03;5.03;;;4.63;;
15194;SDS011;7698;42.478;23.756;2024-03-23T09:31:30;5.00;;;4.60;;
15194;SDS011;7698;42.478;23.756;2024-03-23T09:33:59;3.75;;;3.25;;
15194;SDS011;7698;42.478;23.756;2024-03-23T09:36:24;3.45;;;2.75;;
15194;SDS011;7698;42.478;23.756;2024-03-23T09:38:51;4.85;;;2.80;;
15194;SDS011;7698;42.478;23.756;2024-03-23T09:41:17;3.40;;;3.08;;
15194;SDS011;7698;42.478;23.756;2024-03-23T09:43:44;2.85;;;2.60;;
15194;SDS011;7698;42.478;23.756;2024-03-23T09:46:13;2.75;;;2.55;;
15194;SDS011;7698;42.478;23.756;2024-03-23T09:48:42;3.25;;;2.75;;
15194;SDS011;7698;42.478;23.756;2024-03-23T09:51:09;2.60;;;2.40;;
15194;SDS011;7698;42.478;23.756;2024-03-23T09:53:36;2.92;;;2.72;;
15194;SDS011;7698;42.478;23.756;2024-03-23T09:56:03;3.28;;;2.97;;
15194;SDS011;7698;42.478;23.756;2024-03-23T09:58:31;2.78;;;2.58;;
15194;SDS011;7698;42.478;23.756;2024-03-23T10:00:57;4.57;;;3.60;;
15194;SDS011;7698;42.478;23.756;2024-03-23T10:03:25;5.80;;;4.78;;
15194;SDS011;7698;42.478;23.756;2024-03-23T10:06:01;4.80;;;4.40;;
15194;SDS011;7698;42.478;23.756;2024-03-23T10:08:29;5.63;;;5.07;;
15194;SDS011;7698;42.478;23.756;2024-03-23T10:10:56;3.00;;;2.47;;
15194;SDS011;7698;42.478;23.756;2024-03-23T10:13:24;2.63;;;2.42;;
15194;SDS011;7698;42.478;23.756;2024-03-23T10:15:54;14.75;;;13.35;;
15194;SDS011;7698;42.478;23.756;2024-03-23T10:18:21;17.30;;;15.55;;
15194;SDS011;7698;42.478;23.756;2024-03-23T10:20:50;12.07;;;10.98;;
15194;SDS011;7698;42.478;23.756;2024-03-23T10:23:18;4.43;;;4.03;;
15194;SDS011;7698;42.478;23.756;2024-03-23T10:25:44;4.22;;;2.95;;
15194;SDS011;7698;42.478;23.756;2024-03-23T10:28:12;3.25;;;2.95;;
15194;SDS011;7698;42.478;23.756;2024-03-23T10:30:39;3.78;;;3.47;;
15194;SDS011;7698;42.478;23.756;2024-03-23T10:33:07;3.00;;;2.75;;
15194;SDS011;7698;42.478;23.756;2024-03-23T10:35:33;2.45;;;2.25;;
15194;SDS011;7698;42.478;23.756;2024-03-23T10:38:00;2.00;;;1.80;;
15194;SDS011;7698;42.478;23.756;2024-03-23T10:40:27;2.67;;;2.30;;
15194;SDS011;7698;42.478;23.756;2024-03-23T10:42:56;2.78;;;2.30;;
15194;SDS011;7698;42.478;23.756;2024-03-23T10:45:23;2.45;;;2.25;;
15194;SDS011;7698;42.478;23.756;2024-03-23T10:47:50;2.78;;;2.13;;
15194;SDS011;7698;42.478;23.756;2024-03-23T10:50:17;2.47;;;1.83;;
15194;SDS011;7698;42.478;23.756;2024-03-23T10:52:45;5.47;;;1.98;;
15194;SDS011;7698;42.478;23.756;2024-03-23T10:55:11;2.45;;;2.25;;
15194;SDS011;7698;42.478;23.756;2024-03-23T10:57:41;2.20;;;2.00;;
15194;SDS011;7698;42.478;23.756;2024-03-23T11:00:09;2.72;;;2.25;;
15194;SDS011;7698;42.478;23.756;2024-03-23T11:02:36;2.33;;;2.13;;
15194;SDS011;7698;42.478;23.756;2024-03-23T11:05:03;2.55;;;1.85;;
15194;SDS011;7698;42.478;23.756;2024-03-23T11:07:50;3.10;;;1.77;;
15194;SDS011;7698;42.478;23.756;2024-03-23T11:10:24;2.35;;;2.17;;
15194;SDS011;7698;42.478;23.756;2024-03-23T11:12:52;2.28;;;1.90;;
15194;SDS011;7698;42.478;23.756;2024-03-23T11:15:18;2.33;;;2.13;;
15194;SDS011;7698;42.478;23.756;2024-03-23T11:20:31;2.55;;;2.35;;
15194;SDS011;7698;42.478;23.756;2024-03-23T11:22:58;2.30;;;2.10;;
15194;SDS011;7698;42.478;23.756;2024-03-23T11:25:25;2.78;;;2.58;;
15194;SDS011;7698;42.478;23.756;2024-03-23T11:27:53;3.58;;;2.63;;
15194;SDS011;7698;42.478;23.756;2024-03-23T11:30:20;2.45;;;2.22;;
15194;SDS011;7698;42.478;23.756;2024-03-23T11:32:48;2.88;;;2.00;;
15194;SDS011;7698;42.478;23.756;2024-03-23T11:38:05;2.97;;;2.38;;
15194;SDS011;7698;42.478;23.756;2024-03-23T11:40:31;2.40;;;2.20;;
15194;SDS011;7698;42.478;23.756;2024-03-23T11:43:00;1.70;;;1.60;;
15194;SDS011;7698;42.478;23.756;2024-03-23T11:45:27;2.20;;;2.00;;
15194;SDS011;7698;42.478;23.756;2024-03-23T11:48:04;1.95;;;1.75;;
15194;SDS011;7698;42.478;23.756;2024-03-23T11:50:30;2.28;;;2.10;;
15194;SDS011;7698;42.478;23.756;2024-03-23T11:53:11;2.67;;;2.10;;
15194;SDS011;7698;42.478;23.756;2024-03-23T11:58:23;2.75;;;2.25;;
15194;SDS011;7698;42.478;23.756;2024-03-23T12:00:49;2.67;;;2.47;;
15194;SDS011;7698;42.478;23.756;2024-03-23T12:03:16;3.40;;;3.10;;
15194;SDS011;7698;42.478;23.756;2024-03-23T12:05:46;2.97;;;2.67;;
15194;SDS011;7698;42.478;23.756;2024-03-23T12:11:04;2.25;;;2.00;;
15194;SDS011;7698;42.478;23.756;2024-03-23T12:13:33;2.40;;;2.20;;
15194;SDS011;7698;42.478;23.756;2024-03-23T12:16:08;2.65;;;2.45;;
15194;SDS011;7698;42.478;23.756;2024-03-23T12:18:35;2.50;;;2.30;;
15194;SDS011;7698;42.478;23.756;2024-03-23T12:21:01;2.20;;;2.10;;
15194;SDS011;7698;42.478;23.756;2024-03-23T12:23:28;2.70;;;2.30;;
15194;SDS011;7698;42.478;23.756;2024-03-23T12:25:54;2.53;;;2.10;;
15194;SDS011;7698;42.478;23.756;2024-03-23T12:28:20;2.20;;;2.03;;
15194;SDS011;7698;42.478;23.756;2024-03-23T12:30:47;2.53;;;2.22;;
15194;SDS011;7698;42.478;23.756;2024-03-23T12:33:14;2.17;;;1.50;;
15194;SDS011;7698;42.478;23.756;2024-03-23T12:35:40;2.58;;;2.28;;
15194;SDS011;7698;42.478;23.756;2024-03-23T12:38:07;2.00;;;1.80;;
15194;SDS011;7698;42.478;23.756;2024-03-23T12:40:32;3.08;;;2.38;;
15194;SDS011;7698;42.478;23.756;2024-03-23T12:42:59;2.45;;;2.25;;
15194;SDS011;7698;42.478;23.756;2024-03-23T12:45:25;2.45;;;2.00;;
15194;SDS011;7698;42.478;23.756;2024-03-23T12:47:54;3.90;;;2.65;;
15194;SDS011;7698;42.478;23.756;2024-03-23T12:50:20;3.00;;;2.10;;
15194;SDS011;7698;42.478;23.756;2024-03-23T12:52:46;2.42;;;2.03;;
15194;SDS011;7698;42.478;23.756;2024-03-23T12:55:12;2.63;;;2.42;;
15194;SDS011;7698;42.478;23.756;2024-03-23T12:57:39;2.75;;;2.47;;
15194;SDS011;7698;42.478;23.756;2024-03-23T13:00:06;2.30;;;2.10;;
15194;SDS011;7698;42.478;23.756;2024-03-23T13:02:35;2.50;;;2.30;;
15194;SDS011;7698;42.478;23.756;2024-03-23T13:05:02;2.53;;;2.00;;
15194;SDS011;7698;42.478;23.756;2024-03-23T13:07:29;2.65;;;2.40;;
15194;SDS011;7698;42.478;23.756;2024-03-23T13:09:54;2.15;;;1.95;;
15194;SDS011;7698;42.478;23.756;2024-03-23T13:12:21;2.00;;;1.90;;
15194;SDS011;7698;42.478;23.756;2024-03-23T13:14:47;2.88;;;2.63;;
15194;SDS011;7698;42.478;23.756;2024-03-23T13:17:14;1.83;;;1.73;;
15194;SDS011;7698;42.478;23.756;2024-03-23T13:19:40;2.97;;;2.72;;
15194;SDS011;7698;42.478;23.756;2024-03-23T13:22:08;2.60;;;2.40;;
15194;SDS011;7698;42.478;23.756;2024-03-23T13:24:36;3.08;;;2.13;;
15194;SDS011;7698;42.478;23.756;2024-03-23T13:27:03;2.35;;;2.15;;
15194;SDS011;7698;42.478;23.756;2024-03-23T13:29:30;2.10;;;1.98;;
15194;SDS011;7698;42.478;23.756;2024-03-23T13:31:57;2.67;;;2.47;;
15194;SDS011;7698;42.478;23.756;2024-03-23T13:34:23;2.50;;;2.17;;
15194;SDS011;7698;42.478;23.756;2024-03-23T13:36:49;2.22;;;1.90;;
15194;SDS011;7698;42.478;23.756;2024-03-23T13:39:16;1.90;;;1.80;;
15194;SDS011;7698;42.478;23.756;2024-03-23T13:41:44;3.00;;;1.80;;
15194;SDS011;7698;42.478;23.756;2024-03-23T13:44:10;1.90;;;1.80;;
15194;SDS011;7698;42.478;23.756;2024-03-23T13:46:37;2.20;;;1.98;;
15194;SDS011;7698;42.478;23.756;2024-03-23T13:49:03;2.40;;;1.98;;
15194;SDS011;7698;42.478;23.756;2024-03-23T13:51:30;3.47;;;1.88;;
15194;SDS011;7698;42.478;23.756;2024-03-23T13:53:55;2.00;;;1.90;;
15194;SDS011;7698;42.478;23.756;2024-03-23T13:56:24;2.10;;;1.88;;
15194;SDS011;7698;42.478;23.756;2024-03-23T13:58:50;2.38;;;2.08;;
15194;SDS011;7698;42.478;23.756;2024-03-23T14:01:17;1.58;;;1.48;;
15194;SDS011;7698;42.478;23.756;2024-03-23T14:03:43;1.90;;;1.75;;
15194;SDS011;7698;42.478;23.756;2024-03-23T14:06:10;1.90;;;1.80;;
15194;SDS011;7698;42.478;23.756;2024-03-23T14:08:36;2.10;;;1.90;;
15194;SDS011;7698;42.478;23.756;2024-03-23T14:11:04;1.85;;;1.75;;
15194;SDS011;7698;42.478;23.756;2024-03-23T14:13:32;1.88;;;1.73;;
15194;SDS011;7698;42.478;23.756;2024-03-23T14:15:59;1.80;;;1.70;;
15194;SDS011;7698;42.478;23.756;2024-03-23T14:18:25;2.03;;;1.80;;
15194;SDS011;7698;42.478;23.756;2024-03-23T14:20:52;1.92;;;1.70;;
15194;SDS011;7698;42.478;23.756;2024-03-23T14:23:18;1.65;;;1.55;;
15194;SDS011;7698;42.478;23.756;2024-03-23T14:25:45;2.20;;;1.73;;
15194;SDS011;7698;42.478;23.756;2024-03-23T14:28:11;1.80;;;1.70;;
15194;SDS011;7698;42.478;23.756;2024-03-23T14:30:42;1.80;;;1.70;;
15194;SDS011;7698;42.478;23.756;2024-03-23T14:33:08;2.30;;;2.10;;
15194;SDS011;7698;42.478;23.756;2024-03-23T14:35:35;1.73;;;1.63;;
15194;SDS011;7698;42.478;23.756;2024-03-23T14:38:01;2.42;;;2.08;;
15194;SDS011;7698;42.478;23.756;2024-03-23T14:40:28;3.67;;;2.25;;
15194;SDS011;7698;42.478;23.756;2024-03-23T14:42:54;2.58;;;1.80;;
15194;SDS011;7698;42.478;23.756;2024-03-23T14:45:20;6.40;;;4.60;;
15194;SDS011;7698;42.478;23.756;2024-03-23T14:47:48;2.00;;;1.75;;
15194;SDS011;7698;42.478;23.756;2024-03-23T14:50:15;34.78;;;26.38;;
15194;SDS011;7698;42.478;23.756;2024-03-23T14:52:41;7.30;;;5.03;;
15194;SDS011;7698;42.478;23.756;2024-03-23T14:55:08;4.82;;;3.78;;
15194;SDS011;7698;42.478;23.756;2024-03-23T14:57:34;5.15;;;4.60;;
15194;SDS011;7698;42.478;23.756;2024-03-23T15:00:01;3.45;;;2.33;;
15194;SDS011;7698;42.478;23.756;2024-03-23T15:02:30;2.97;;;2.53;;
15194;SDS011;7698;42.478;23.756;2024-03-23T15:04:58;3.88;;;2.60;;
15194;SDS011;7698;42.478;23.756;2024-03-23T15:07:24;4.55;;;2.70;;
15194;SDS011;7698;42.478;23.756;2024-03-23T15:09:51;4.38;;;3.92;;
15194;SDS011;7698;42.478;23.756;2024-03-23T15:12:19;5.43;;;3.22;;
15194;SDS011;7698;42.478;23.756;2024-03-23T15:14:46;5.88;;;5.25;;
15194;SDS011;7698;42.478;23.756;2024-03-23T15:17:12;6.93;;;5.53;;
15194;SDS011;7698;42.478;23.756;2024-03-23T15:19:39;2.97;;;2.65;;
15194;SDS011;7698;42.478;23.756;2024-03-23T15:22:06;3.50;;;3.10;;
15194;SDS011;7698;42.478;23.756;2024-03-23T15:24:33;4.05;;;3.65;;
15194;SDS011;7698;42.478;23.756;2024-03-23T15:27:00;3.47;;;3.00;;
15194;SDS011;7698;42.478;23.756;2024-03-23T15:29:27;4.13;;;3.72;;
15194;SDS011;7698;42.478;23.756;2024-03-23T15:31:53;3.17;;;2.83;;
15194;SDS011;7698;42.478;23.756;2024-03-23T15:34:20;4.03;;;2.80;;
15194;SDS011;7698;42.478;23.756;2024-03-23T15:36:47;2.67;;;2.47;;
15194;SDS011;7698;42.478;23.756;2024-03-23T15:39:15;3.13;;;2.65;;
15194;SDS011;7698;42.478;23.756;2024-03-23T15:41:41;3.10;;;2.63;;
15194;SDS011;7698;42.478;23.756;2024-03-23T15:44:09;3.10;;;2.70;;
15194;SDS011;7698;42.478;23.756;2024-03-23T15:46:36;2.72;;;2.53;;
15194;SDS011;7698;42.478;23.756;2024-03-23T15:49:03;3.20;;;2.90;;